Time;durP1;ratioP1;P1;durP2;ratioP2;P2;SDS_P1;SDS_P2;PMS_P1;PMS_P2;Temp;Humidity;BMP_temperature;BMP_pressure;BME280_temperature;BME280_humidity;BME280_pressure;Samples;Min_cycle;Max_cycle;Signal;HPM_P1;HPM_P2
2023/10/25 00:00:43;;;;;;;32.03;16.30;;;;;;;16.19;41.88;100072.91;1717297;81;21270;-82
2023/10/25 00:03:48;;;;;;;33.58;17.40;;;;;;;16.04;42.33;100061.27;1717605;83;21308;-81
2023/10/25 00:06:54;;;;;;;25.60;15.75;;;;;;;15.60;43.55;100065.62;1717785;83;21394;-81
2023/10/25 00:10:04;;;;;;;29.85;16.77;;;;;;;15.11;44.72;100060.59;1717270;83;21999;-81
2023/10/25 00:13:07;;;;;;;30.25;15.38;;;;;;;15.66;43.81;100059.27;1717399;83;21301;-82
2023/10/25 00:16:14;;;;;;;29.98;16.80;;;;;;;15.97;43.17;100051.66;1717164;81;21292;-81
2023/10/25 00:19:20;;;;;;;31.45;16.25;;;;;;;16.16;42.57;100060.08;1728725;80;21827;-82
2023/10/25 00:22:26;;;;;;;31.60;16.95;;;;;;;16.21;42.56;100049.22;1769181;81;21315;-82
2023/10/25 00:25:32;;;;;;;29.75;16.17;;;;;;;16.28;42.25;100036.25;1768043;80;21284;-81
2023/10/25 00:28:38;;;;;;;31.25;17.15;;;;;;;16.58;41.83;100022.16;1767662;80;21269;-81
2023/10/25 00:31:45;;;;;;;36.58;15.55;;;;;;;16.39;41.92;100012.09;1768673;80;21284;-81
2023/10/25 00:34:52;;;;;;;30.30;16.40;;;;;;;16.34;42.29;100022.95;1770903;80;21273;-83
2023/10/25 00:37:58;;;;;;;26.90;15.60;;;;;;;16.65;41.87;100012.97;1770743;81;21283;-82
2023/10/25 00:41:04;;;;;;;34.92;15.63;;;;;;;16.72;41.45;100020.72;1770491;81;21303;-82
2023/10/25 00:44:10;;;;;;;27.02;14.35;;;;;;;16.48;41.71;100031.46;1770359;81;21273;-81
2023/10/25 00:47:17;;;;;;;29.77;15.10;;;;;;;16.41;41.67;100029.26;1768330;79;21799;-81
2023/10/25 00:50:23;;;;;;;30.08;14.98;;;;;;;16.25;42.03;100033.39;1769943;81;21280;-82
2023/10/25 00:53:28;;;;;;;27.27;14.78;;;;;;;16.43;42.18;100034.05;1769683;81;21801;-82
2023/10/25 00:56:36;;;;;;;30.08;15.83;;;;;;;16.58;41.78;100033.20;1769011;81;21284;-82
2023/10/25 00:59:42;;;;;;;33.00;16.35;;;;;;;16.73;41.50;100021.02;1769192;81;21257;-82
2023/10/25 01:02:48;;;;;;;26.35;15.88;;;;;;;16.83;41.37;100018.06;1757490;81;21304;-82
2023/10/25 01:05:55;;;;;;;31.37;16.05;;;;;;;16.82;41.27;100019.68;1722407;81;21300;-84
2023/10/25 01:09:01;;;;;;;28.00;16.05;;;;;;;16.68;41.59;100017.52;1739847;82;21319;-81
2023/10/25 01:12:08;;;;;;;25.57;15.05;;;;;;;16.82;41.56;100021.91;1758512;81;22165;-82
2023/10/25 01:15:16;;;;;;;30.08;15.53;;;;;;;17.13;40.97;100013.81;1749608;79;21343;-81
2023/10/25 01:18:23;;;;;;;21.97;13.72;;;;;;;17.33;40.71;100002.86;1783954;79;21717;-82
2023/10/25 01:21:27;;;;;;;23.60;13.50;;;;;;;17.03;41.33;99999.97;1790577;79;21296;-82
2023/10/25 01:24:33;;;;;;;22.00;13.05;;;;;;;17.11;41.54;99993.29;1786284;80;21292;-81
2023/10/25 01:27:37;;;;;;;24.40;13.80;;;;;;;17.59;41.03;100007.25;1786052;80;21320;-82
2023/10/25 01:30:36;;;;;;;25.27;13.35;;;;;;;17.66;40.81;100009.13;1783084;80;21897;-82
2023/10/25 01:33:45;;;;;;;26.15;14.75;;;;;;;17.26;41.42;100010.36;1786482;80;21297;-82
2023/10/25 01:36:44;;;;;;;31.23;15.40;;;;;;;17.45;40.85;100011.23;1788919;79;21673;-82
2023/10/25 01:39:37;;;;;;;29.35;15.18;;;;;;;16.73;41.91;100017.72;1789982;79;21810;-82
2023/10/25 01:42:42;;;;;;;26.30;15.05;;;;;;;16.52;42.41;100012.01;1801114;79;22172;-82
2023/10/25 01:45:47;;;;;;;27.90;15.78;;;;;;;16.60;42.23;100014.48;1788389;79;21841;-81
2023/10/25 01:48:54;;;;;;;25.20;14.80;;;;;;;16.87;41.82;100008.80;1788351;79;21288;-81
2023/10/25 01:51:58;;;;;;;25.90;15.18;;;;;;;16.76;42.08;100010.92;1798831;79;21276;-82
2023/10/25 01:55:05;;;;;;;57.98;25.37;;;;;;;16.70;41.92;99997.45;1786296;80;21261;-82
2023/10/25 01:58:12;;;;;;;102.05;40.63;;;;;;;16.81;41.57;100001.42;1786107;80;21285;-82
2023/10/25 02:01:18;;;;;;;108.65;44.55;;;;;;;16.74;41.70;100006.14;1775292;79;21284;-82
2023/10/25 02:04:23;;;;;;;91.70;36.50;;;;;;;16.78;41.65;100006.01;1748312;81;21365;-83
2023/10/25 02:07:30;;;;;;;76.72;31.60;;;;;;;16.39;42.23;100007.95;1763853;81;22290;-83
2023/10/25 02:10:36;;;;;;;66.22;28.27;;;;;;;16.74;41.62;100003.37;1763868;81;21974;-82
2023/10/25 02:13:42;;;;;;;63.83;28.90;;;;;;;16.34;42.43;100003.09;1763415;81;21323;-82
2023/10/25 02:16:47;;;;;;;65.22;30.72;;;;;;;16.33;42.64;100010.22;1781148;79;21294;-82
2023/10/25 02:19:54;;;;;;;72.62;33.42;;;;;;;16.17;43.17;100005.20;1783650;79;21252;-82
2023/10/25 02:23:00;;;;;;;95.35;39.40;;;;;;;16.04;43.52;100008.86;1767325;81;21287;-83
2023/10/25 02:26:07;;;;;;;82.50;34.15;;;;;;;16.33;42.95;100004.70;1768844;81;21891;-83
2023/10/25 02:29:13;;;;;;;67.03;30.00;;;;;;;16.36;42.85;99999.56;1768892;81;21314;-82
2023/10/25 02:32:19;;;;;;;133.45;49.48;;;;;;;16.50;42.54;100009.98;1790193;79;21283;-81
2023/10/25 02:35:24;;;;;;;153.72;58.17;;;;;;;16.75;42.25;100021.13;1779073;80;21960;-83
2023/10/25 02:38:30;;;;;;;180.03;67.80;;;;;;;16.85;42.09;100023.39;1767912;81;21905;-84
2023/10/25 02:41:36;;;;;;;182.05;69.62;;;;;;;16.97;41.56;100010.52;1768651;81;21729;-83
2023/10/25 02:44:42;;;;;;;144.93;52.93;;;;;;;16.69;41.82;100015.59;1768179;81;21299;-84
2023/10/25 02:47:48;;;;;;;116.08;46.23;;;;;;;17.09;41.20;99996.30;1767653;81;21209;-84
2023/10/25 02:50:53;;;;;;;116.28;45.33;;;;;;;16.70;42.07;99990.55;1786267;79;21260;-82
2023/10/25 02:54:00;;;;;;;120.62;46.58;;;;;;;16.81;41.56;99995.90;1784694;80;21292;-83
2023/10/25 02:57:05;;;;;;;107.85;45.33;;;;;;;17.13;41.38;99988.94;1786731;80;21320;-83
2023/10/25 03:00:13;;;;;;;97.75;39.05;;;;;;;17.35;41.00;99990.19;1791870;80;21311;-83
2023/10/25 03:03:18;;;;;;;89.37;34.35;;;;;;;17.53;40.50;99992.13;1799544;79;21293;-82
2023/10/25 03:06:23;;;;;;;47.80;23.42;;;;;;;17.47;40.71;99983.38;1785731;80;21614;-82
2023/10/25 03:09:29;;;;;;;35.13;18.52;;;;;;;17.44;40.83;99973.61;1796322;80;21322;-81
2023/10/25 03:12:35;;;;;;;46.15;19.40;;;;;;;17.61;41.46;99967.78;1806485;79;21379;-81
2023/10/25 03:15:41;;;;;;;35.63;19.70;;;;;;;17.12;42.58;99970.11;1787175;79;21327;-81
2023/10/25 03:18:46;;;;;;;51.00;25.48;;;;;;;17.32;42.88;99967.17;1758545;81;21288;-82
2023/10/25 03:21:52;;;;;;;70.10;28.77;;;;;;;17.79;41.99;99970.28;1757662;81;21866;-82
2023/10/25 03:24:58;;;;;;;63.02;27.75;;;;;;;17.59;42.38;99966.31;1753605;82;21289;-82
2023/10/25 03:28:05;;;;;;;39.23;21.20;;;;;;;17.60;42.24;99963.34;1753761;82;21265;-83
2023/10/25 03:31:14;;;;;;;35.43;19.23;;;;;;;17.64;41.95;99951.25;1769816;79;21339;-81
2023/10/25 03:34:19;;;;;;;33.28;17.12;;;;;;;17.41;42.80;99953.36;1788821;80;21953;-83
2023/10/25 03:37:24;;;;;;;30.65;17.65;;;;;;;17.22;43.82;99954.38;1789068;80;21348;-83
2023/10/25 03:40:30;;;;;;;35.48;16.35;;;;;;;17.24;44.08;99950.88;1788972;80;21256;-83
2023/10/25 03:43:35;;;;;;;32.75;17.90;;;;;;;17.35;44.14;99959.23;1788895;80;21300;-82
2023/10/25 03:46:41;;;;;;;30.75;16.77;;;;;;;17.49;43.77;99959.09;1779478;80;21311;-82
2023/10/25 03:49:47;;;;;;;30.32;18.17;;;;;;;17.32;44.21;99964.41;1788201;80;21265;-83
2023/10/25 03:52:53;;;;;;;36.77;20.45;;;;;;;16.99;44.64;99966.11;1782695;80;21638;-82
2023/10/25 03:56:04;;;;;;;41.75;20.62;;;;;;;17.14;44.40;99956.92;1781344;80;21854;-83
2023/10/25 03:59:11;;;;;;;40.10;22.20;;;;;;;16.80;45.13;99952.78;1786486;80;21312;-82
2023/10/25 04:02:17;;;;;;;42.15;25.17;;;;;;;16.94;45.61;99948.84;1755519;80;21335;-83
2023/10/25 04:05:23;;;;;;;47.20;24.52;;;;;;;16.88;46.70;99947.49;1752312;82;21375;-83
2023/10/25 04:08:30;;;;;;;37.93;22.10;;;;;;;16.78;47.30;99952.15;1750061;81;21339;-81
2023/10/25 04:11:37;;;;;;;44.65;23.85;;;;;;;16.73;47.71;99956.13;1752748;81;22402;-81
2023/10/25 04:14:43;;;;;;;43.08;23.40;;;;;;;17.17;46.85;99960.59;1717842;83;21990;-82
2023/10/25 04:17:49;;;;;;;41.80;23.52;;;;;;;17.55;46.05;99960.42;1674592;85;21905;-82
2023/10/25 04:20:55;;;;;;;54.48;24.72;;;;;;;17.75;45.61;99963.52;1734677;82;21297;-82
2023/10/25 04:24:01;;;;;;;44.13;24.02;;;;;;;17.48;46.44;99972.63;1751983;81;21323;-81
2023/10/25 04:27:08;;;;;;;55.92;27.30;;;;;;;17.50;46.71;99969.08;1770566;81;21409;-82
2023/10/25 04:30:15;;;;;;;54.80;28.15;;;;;;;17.46;46.82;99972.86;1771511;81;21841;-82
2023/10/25 04:33:20;;;;;;;56.05;26.97;;;;;;;18.35;45.28;99979.63;1771586;81;21319;-82
2023/10/25 04:36:26;;;;;;;52.45;26.97;;;;;;;18.31;45.36;99985.87;1771148;81;21308;-81
2023/10/25 04:39:30;;;;;;;56.90;27.77;;;;;;;18.18;45.82;99979.13;1771549;81;21295;-82
2023/10/25 04:42:36;;;;;;;57.05;29.65;;;;;;;18.33;45.60;99978.16;1771791;79;21287;-83
2023/10/25 04:45:45;;;;;;;53.05;30.27;;;;;;;18.31;45.54;99985.87;1771492;81;21715;-83
2023/10/25 04:48:51;;;;;;;51.68;26.45;;;;;;;18.23;45.48;99984.81;1771725;81;21264;-82
2023/10/25 04:51:58;;;;;;;54.73;27.58;;;;;;;18.05;46.06;99988.45;1771621;81;21287;-83
2023/10/25 04:55:03;;;;;;;49.30;28.05;;;;;;;18.07;46.17;99979.39;1771697;81;21264;-82
2023/10/25 04:58:09;;;;;;;54.35;28.32;;;;;;;17.97;46.38;99977.69;1771550;81;21255;-82
2023/10/25 05:01:23;;;;;;;57.53;30.82;;;;;;;18.00;46.50;99977.23;1771440;81;21789;-83
2023/10/25 05:04:28;;;;;;;63.35;31.42;;;;;;;17.79;47.08;99982.73;1771623;81;21259;-83
2023/10/25 05:07:37;;;;;;;61.58;30.57;;;;;;;18.37;46.18;99976.62;1770344;81;21845;-83
2023/10/25 05:10:42;;;;;;;55.08;30.17;;;;;;;18.52;45.87;99977.02;1771530;81;21275;-82
2023/10/25 05:13:48;;;;;;;58.98;29.77;;;;;;;18.00;46.83;99982.23;1771212;81;21260;-82
2023/10/25 05:16:53;;;;;;;51.35;27.40;;;;;;;18.53;45.65;99988.94;1771492;81;21888;-83
2023/10/25 05:19:59;;;;;;;62.23;30.45;;;;;;;18.28;46.08;99994.09;1771481;81;21837;-83
2023/10/25 05:23:05;;;;;;;63.33;30.97;;;;;;;18.46;45.53;99995.97;1771465;81;21798;-83
2023/10/25 05:26:11;;;;;;;58.70;30.10;;;;;;;18.71;45.08;99997.76;1774750;79;21841;-83
2023/10/25 05:29:16;;;;;;;64.07;30.75;;;;;;;18.40;45.67;99994.16;1752659;81;21240;-82
2023/10/25 05:32:24;;;;;;;61.20;29.90;;;;;;;18.74;45.17;99996.75;1714069;82;21249;-83
2023/10/25 05:35:30;;;;;;;59.98;31.27;;;;;;;18.48;45.50;99991.03;1728166;81;21257;-83
2023/10/25 05:38:36;;;;;;;61.37;31.93;;;;;;;18.52;45.53;99992.25;1724294;82;21272;-82
2023/10/25 05:41:46;;;;;;;62.58;28.75;;;;;;;18.64;45.28;99994.52;1779524;79;21276;-82
2023/10/25 05:44:56;;;;;;;61.70;31.33;;;;;;;18.71;45.20;99999.98;1777894;79;21262;-83
2023/10/25 05:48:02;;;;;;;63.38;30.60;;;;;;;19.07;44.67;100008.67;1784849;79;21564;-83
2023/10/25 05:51:09;;;;;;;73.15;35.55;;;;;;;18.67;45.54;100018.12;1795835;78;21837;-83
2023/10/25 05:54:15;;;;;;;77.30;37.13;;;;;;;18.61;45.57;100014.38;1762139;79;21276;-82
2023/10/25 05:57:24;;;;;;;78.97;34.75;;;;;;;18.86;45.34;100021.70;1780437;79;21806;-82
2023/10/25 06:00:30;;;;;;;82.57;39.85;;;;;;;19.05;45.08;100016.91;1746589;81;21260;-83
2023/10/25 06:03:35;;;;;;;93.50;43.15;;;;;;;19.09;45.21;100023.13;1752814;81;21826;-83
2023/10/25 06:06:42;;;;;;;83.30;43.28;;;;;;;19.16;45.17;100021.64;1778282;79;21252;-83
2023/10/25 06:09:46;;;;;;;88.62;45.20;;;;;;;19.55;44.66;100023.39;1777912;79;21838;-83
2023/10/25 06:12:53;;;;;;;102.22;47.85;;;;;;;19.71;44.41;100013.50;1771426;79;21770;-83
2023/10/25 06:16:00;;;;;;;72.78;38.98;;;;;;;19.60;44.77;100011.89;1745656;81;21324;-83
2023/10/25 06:19:06;;;;;;;90.10;44.53;;;;;;;19.91;44.31;100009.81;1781131;78;21911;-83
2023/10/25 06:22:13;;;;;;;80.35;40.52;;;;;;;19.98;44.21;100009.11;1787575;79;21292;-83
2023/10/25 06:25:19;;;;;;;66.82;33.13;;;;;;;19.76;44.26;100014.48;1781201;79;21287;-83
2023/10/25 06:28:25;;;;;;;67.42;33.28;;;;;;;20.20;43.74;100009.84;1770498;79;21786;-82
2023/10/25 06:31:30;;;;;;;60.70;31.90;;;;;;;20.03;43.86;100009.22;1784657;79;21820;-82
2023/10/25 06:34:30;;;;;;;65.95;33.53;;;;;;;20.28;43.34;99998.32;1780715;79;21264;-82
2023/10/25 06:37:35;;;;;;;58.05;30.40;;;;;;;20.46;43.01;99997.28;1702516;83;21307;-82
2023/10/25 06:40:40;;;;;;;61.20;31.05;;;;;;;20.48;42.88;99998.77;1714545;82;21271;-83
2023/10/25 06:43:45;;;;;;;57.90;27.27;;;;;;;20.51;42.83;99999.64;1772818;79;21912;-83
2023/10/25 06:46:51;;;;;;;44.23;25.05;;;;;;;20.24;43.40;99993.84;1779310;80;21628;-82
2023/10/25 06:49:57;;;;;;;46.20;25.10;;;;;;;20.25;43.45;99997.45;1769496;79;21822;-79
2023/10/25 06:53:03;;;;;;;49.13;26.40;;;;;;;20.07;43.92;99977.10;1781077;79;21244;-79
2023/10/25 06:56:10;;;;;;;44.18;22.40;;;;;;;19.53;44.73;99975.65;1793867;78;21964;-79
2023/10/25 06:59:16;;;;;;;40.23;20.70;;;;;;;19.97;43.94;99976.90;1778347;79;21287;-81
2023/10/25 07:02:36;;;;;;;39.63;20.95;;;;;;;19.36;44.61;99967.21;1783496;79;21782;-82
2023/10/25 07:05:42;;;;;;;33.18;19.15;;;;;;;19.46;44.79;99972.98;1777282;79;21277;-81
2023/10/25 07:08:50;;;;;;;43.10;20.80;;;;;;;19.74;44.36;99967.25;1782407;79;21275;-81
2023/10/25 07:11:57;;;;;;;35.70;21.40;;;;;;;19.66;44.55;99964.30;1782305;79;21292;-80
2023/10/25 07:15:04;;;;;;;36.95;22.27;;;;;;;19.44;44.86;99966.84;1786635;79;21248;-84
2023/10/25 07:18:08;;;;;;;38.95;21.75;;;;;;;19.25;45.23;99974.45;1788497;79;21264;-82
2023/10/25 07:21:14;;;;;;;32.40;20.72;;;;;;;19.77;44.58;99972.32;1768678;78;22114;-82
2023/10/25 07:24:20;;;;;;;41.02;20.40;;;;;;;19.89;44.22;99968.40;1757629;80;21291;-84
2023/10/25 07:27:26;;;;;;;42.33;23.83;;;;;;;20.09;44.08;99966.61;1741006;79;21328;-83
2023/10/25 07:30:31;;;;;;;47.80;25.02;;;;;;;20.18;43.73;99953.15;1728287;82;21292;-84
2023/10/25 07:33:38;;;;;;;39.18;21.05;;;;;;;20.48;43.59;99957.09;1726535;81;21331;-84
2023/10/25 07:36:44;;;;;;;32.83;16.93;;;;;;;20.70;43.18;99954.41;1728889;82;21893;-84
2023/10/25 07:39:49;;;;;;;31.00;16.82;;;;;;;20.24;43.61;99952.18;1730875;82;21853;-84
2023/10/25 07:42:55;;;;;;;34.88;17.27;;;;;;;20.12;43.98;99948.59;1724976;82;21311;-83
2023/10/25 07:45:59;;;;;;;36.03;19.15;;;;;;;19.99;44.33;99933.62;1724387;81;21312;-84
2023/10/25 07:49:04;;;;;;;46.42;26.42;;;;;;;20.08;44.32;99928.81;1726747;82;21264;-83
2023/10/25 07:52:10;;;;;;;72.15;36.38;;;;;;;19.88;44.65;99922.86;1728767;82;21676;-84
2023/10/25 07:55:16;;;;;;;77.37;37.30;;;;;;;19.60;45.59;99909.80;1728921;82;21679;-84
2023/10/25 07:58:23;;;;;;;74.45;37.75;;;;;;;19.87;45.34;99905.38;1725698;81;21280;-83
2023/10/25 08:01:29;;;;;;;85.67;38.45;;;;;;;20.02;45.72;99909.54;1722949;82;21275;-84
2023/10/25 08:04:36;;;;;;;83.65;38.33;;;;;;;20.23;45.35;99903.30;1726650;81;21323;-81
2023/10/25 08:07:42;;;;;;;90.17;40.67;;;;;;;20.43;45.36;99902.81;1722298;81;21288;-83
2023/10/25 08:10:48;;;;;;;98.00;41.18;;;;;;;20.40;45.53;99894.42;1724355;81;21291;-82
2023/10/25 08:13:54;;;;;;;96.05;42.25;;;;;;;20.61;45.33;99890.10;1722168;82;21292;-82
2023/10/25 08:17:02;;;;;;;95.22;41.83;;;;;;;20.51;45.66;99891.30;1721705;82;21275;-81
2023/10/25 08:20:08;;;;;;;91.60;42.17;;;;;;;20.77;45.15;99882.01;1725781;82;21728;-81
2023/10/25 08:23:13;;;;;;;106.63;47.53;;;;;;;20.62;45.69;99875.11;1726678;82;21292;-82
2023/10/25 08:26:21;;;;;;;100.22;44.10;;;;;;;20.85;45.28;99865.75;1718527;81;21271;-81
2023/10/25 08:29:27;;;;;;;118.65;45.98;;;;;;;20.61;45.78;99860.09;1755509;80;21875;-81
2023/10/25 08:32:33;;;;;;;101.50;42.95;;;;;;;20.68;45.34;99856.03;1760854;80;21264;-82
2023/10/25 08:35:31;;;;;;;111.80;48.17;;;;;;;20.78;45.41;99847.00;1757106;81;21251;-81
2023/10/25 08:38:37;;;;;;;102.40;45.52;;;;;;;21.52;43.97;99845.28;1761836;80;21292;-81
2023/10/25 08:41:42;;;;;;;113.12;46.20;;;;;;;21.32;44.28;99849.20;1763444;80;21266;-81
2023/10/25 08:44:47;;;;;;;99.75;44.88;;;;;;;21.44;43.91;99847.95;1716644;82;21308;-83
2023/10/25 08:47:52;;;;;;;100.53;41.75;;;;;;;20.85;45.40;99851.85;1758579;80;21796;-83
2023/10/25 08:51:00;;;;;;;104.23;42.45;;;;;;;21.61;44.53;99842.89;1762703;80;21295;-84
2023/10/25 08:54:09;;;;;;;94.00;41.35;;;;;;;22.01;43.71;99845.27;1760608;80;21270;-83
2023/10/25 08:57:15;;;;;;;98.50;42.60;;;;;;;22.46;43.16;99831.52;1751390;80;21261;-83
2023/10/25 09:00:23;;;;;;;107.25;44.13;;;;;;;22.68;42.92;99834.21;1757919;80;21293;-83
2023/10/25 09:03:46;;;;;;;89.13;38.27;;;;;;;22.32;43.90;99824.71;1754264;80;21252;-83
2023/10/25 09:06:53;;;;;;;41.10;21.68;;;;;;;22.66;43.29;99826.09;1756311;81;21303;-83
2023/10/25 09:09:58;;;;;;;26.55;14.10;;;;;;;22.70;43.06;99820.27;1743222;81;21285;-83
2023/10/25 09:13:04;;;;;;;21.20;12.15;;;;;;;22.91;42.67;99820.43;1754560;80;21270;-83
2023/10/25 09:16:21;;;;;;;18.35;11.22;;;;;;;22.90;42.44;99821.55;1751571;80;21449;-82
2023/10/25 09:19:26;;;;;;;17.82;10.90;;;;;;;22.76;42.67;99814.73;1755902;80;21283;-82
2023/10/25 09:22:35;;;;;;;17.85;10.40;;;;;;;22.55;42.88;99810.97;1754489;80;21869;-81
2023/10/25 09:25:41;;;;;;;23.32;11.03;;;;;;;22.84;42.55;99809.49;1752699;80;21773;-83
2023/10/25 09:28:46;;;;;;;21.20;11.08;;;;;;;22.55;42.97;99805.39;1755478;80;22150;-81
2023/10/25 09:31:52;;;;;;;19.27;10.40;;;;;;;22.54;43.10;99800.38;1766430;79;21286;-81
2023/10/25 09:34:58;;;;;;;23.20;12.47;;;;;;;22.19;43.62;99801.75;1726719;80;21255;-81
2023/10/25 09:38:05;;;;;;;22.35;11.73;;;;;;;22.15;43.92;99798.37;1756584;79;21261;-81
2023/10/25 09:41:10;;;;;;;26.45;12.75;;;;;;;22.07;44.21;99792.72;1753541;80;21332;-80
2023/10/25 09:44:19;;;;;;;21.17;11.40;;;;;;;22.03;44.38;99787.94;1754863;81;21280;-79
2023/10/25 09:47:25;;;;;;;27.17;12.37;;;;;;;21.81;45.10;99779.64;1755474;81;21320;-78
2023/10/25 09:50:44;;;;;;;20.23;11.65;;;;;;;21.90;44.83;99780.84;1755266;81;21256;-79
2023/10/25 09:53:55;;;;;;;17.02;10.80;;;;;;;21.84;45.25;99780.52;1748022;81;21276;-79
2023/10/25 09:57:02;;;;;;;18.67;10.90;;;;;;;21.66;45.95;99781.16;1754696;80;21873;-79
2023/10/25 10:00:08;;;;;;;24.80;12.23;;;;;;;21.93;45.65;99783.95;1746969;81;21292;-80
2023/10/25 10:03:18;;;;;;;22.32;11.88;;;;;;;21.65;46.37;99782.27;1759636;81;21264;-81
2023/10/25 10:06:47;;;;;;;20.70;11.88;;;;;;;21.83;46.22;99776.90;1753053;80;21897;-80
2023/10/25 10:10:17;;;;;;;21.35;12.20;;;;;;;21.77;46.42;99768.74;1726776;81;21361;-80
2023/10/25 10:13:26;;;;;;;19.67;11.60;;;;;;;21.66;46.62;99763.08;1760460;80;21275;-79
2023/10/25 10:16:32;;;;;;;17.77;11.57;;;;;;;21.84;46.52;99767.44;1752624;81;21287;-80
2023/10/25 10:19:42;;;;;;;20.00;10.63;;;;;;;21.82;46.46;99762.66;1738152;80;21287;-80
2023/10/25 10:22:50;;;;;;;22.73;11.45;;;;;;;22.04;46.21;99765.39;1763147;79;21256;-79
2023/10/25 10:25:56;;;;;;;23.87;12.35;;;;;;;22.01;46.20;99753.93;1740320;81;21386;-80
2023/10/25 10:29:04;;;;;;;22.25;12.00;;;;;;;21.74;46.88;99760.38;1750440;80;21323;-80
2023/10/25 10:32:10;;;;;;;20.08;12.53;;;;;;;22.02;46.56;99770.92;1750346;81;21869;-80
2023/10/25 10:35:15;;;;;;;21.50;12.05;;;;;;;21.86;46.91;99760.20;1745752;81;21268;-80
2023/10/25 10:38:21;;;;;;;18.20;10.53;;;;;;;22.03;46.85;99754.52;1707372;81;21260;-80
2023/10/25 10:41:36;;;;;;;18.67;11.10;;;;;;;22.19;46.35;99755.80;1752490;81;21256;-84
2023/10/25 10:44:43;;;;;;;20.30;10.95;;;;;;;22.14;46.72;99754.92;1752298;81;21265;-80
2023/10/25 10:48:16;;;;;;;21.30;11.22;;;;;;;22.02;46.93;99743.94;1750951;81;21287;-80
2023/10/25 10:51:22;;;;;;;16.30;10.85;;;;;;;22.14;46.92;99750.19;1755539;81;21276;-83
2023/10/25 10:54:28;;;;;;;21.55;10.75;;;;;;;22.06;47.20;99739.49;1750782;81;21284;-80
2023/10/25 10:57:34;;;;;;;20.15;10.55;;;;;;;22.17;47.03;99744.09;1750502;81;21304;-83
2023/10/25 11:00:46;;;;;;;15.63;9.08;;;;;;;22.33;46.76;99742.81;1731518;82;21266;-83
2023/10/25 11:03:49;;;;;;;15.18;9.93;;;;;;;22.39;46.52;99733.38;1749756;81;21277;-81
2023/10/25 11:06:55;;;;;;;15.48;8.93;;;;;;;22.14;47.38;99727.06;1756639;81;21271;-81
2023/10/25 11:10:01;;;;;;;16.32;9.05;;;;;;;21.97;47.78;99725.77;1754039;80;21256;-82
2023/10/25 11:13:06;;;;;;;16.60;10.10;;;;;;;21.95;47.79;99726.59;1755943;81;21261;-81
2023/10/25 11:16:12;;;;;;;20.27;10.82;;;;;;;21.64;48.58;99714.33;1747974;81;21833;-82
2023/10/25 11:19:25;;;;;;;17.02;9.40;;;;;;;21.82;48.36;99711.72;1753513;81;21828;-82
2023/10/25 11:22:24;;;;;;;14.93;8.78;;;;;;;21.54;49.02;99705.34;1748686;81;21342;-80
2023/10/25 11:25:19;;;;;;;19.90;10.30;;;;;;;21.63;48.97;99709.88;1745654;81;21857;-79
2023/10/25 11:28:05;;;;;;;14.43;9.13;;;;;;;21.57;49.24;99702.59;1749182;81;21308;-79
2023/10/25 11:31:11;;;;;;;17.25;9.75;;;;;;;21.31;49.83;99711.20;1753773;81;21319;-80
2023/10/25 11:34:16;;;;;;;16.17;8.58;;;;;;;21.42;49.75;99709.69;1743206;81;21265;-81
2023/10/25 11:37:22;;;;;;;19.23;10.03;;;;;;;21.54;49.60;99715.08;1764820;81;21416;-80
2023/10/25 11:40:47;;;;;;;22.05;10.35;;;;;;;21.40;50.07;99720.77;1756325;81;21360;-81
2023/10/25 11:43:52;;;;;;;16.95;9.65;;;;;;;21.51;49.96;99714.23;1747298;80;21283;-80
2023/10/25 11:46:58;;;;;;;19.00;10.95;;;;;;;21.78;49.36;99700.27;1765522;80;21304;-81
2023/10/25 11:50:08;;;;;;;13.20;9.00;;;;;;;21.68;49.73;99696.01;1752929;81;21348;-80
2023/10/25 11:53:15;;;;;;;17.17;10.70;;;;;;;21.37;50.38;99681.81;1761532;81;21315;-81
2023/10/25 11:56:22;;;;;;;21.42;10.45;;;;;;;21.45;50.39;99688.83;1763703;80;21304;-79
2023/10/25 11:59:26;;;;;;;16.62;9.25;;;;;;;21.54;50.19;99692.81;1758055;80;21256;-82
2023/10/25 12:02:33;;;;;;;19.20;9.63;;;;;;;21.46;50.50;99684.97;1758561;81;21316;-81
2023/10/25 12:05:38;;;;;;;21.62;11.33;;;;;;;21.26;50.93;99690.27;1742063;81;21280;-80
2023/10/25 12:08:46;;;;;;;26.37;15.45;;;;;;;21.19;51.17;99669.08;1723484;81;21220;-80
2023/10/25 12:11:51;;;;;;;43.73;21.68;;;;;;;21.17;51.34;99656.52;1703319;82;21282;-81
2023/10/25 12:14:57;;;;;;;67.05;32.38;;;;;;;20.88;52.17;99642.02;1722694;81;21305;-80
2023/10/25 12:18:03;;;;;;;71.75;38.20;;;;;;;20.78;52.84;99623.28;1709239;82;21271;-81
2023/10/25 12:21:12;;;;;;;59.33;30.68;;;;;;;20.86;52.69;99604.77;1671477;85;21916;-80
2023/10/25 12:24:19;;;;;;;50.33;28.17;;;;;;;21.35;51.56;99615.02;1706750;83;21275;-81
2023/10/25 12:27:25;;;;;;;44.88;24.27;;;;;;;21.22;51.62;99609.84;1684907;84;21322;-80
2023/10/25 12:30:34;;;;;;;34.20;17.82;;;;;;;21.18;51.82;99604.00;1751850;81;21312;-80
2023/10/25 12:33:40;;;;;;;27.55;15.68;;;;;;;21.16;51.94;99602.01;1747116;81;21326;-79
2023/10/25 12:36:47;;;;;;;31.00;14.98;;;;;;;21.46;51.35;99604.29;1753575;81;21315;-80
2023/10/25 12:39:53;;;;;;;25.20;13.32;;;;;;;21.43;51.25;99602.02;1761951;80;21280;-79
2023/10/25 12:43:00;;;;;;;20.52;12.05;;;;;;;21.58;50.94;99602.14;1763777;80;21323;-80
2023/10/25 12:46:07;;;;;;;18.12;11.68;;;;;;;21.46;51.32;99595.11;1746757;81;21316;-79
2023/10/25 12:49:06;;;;;;;19.45;10.40;;;;;;;21.06;52.45;99584.67;1740246;79;21303;-80
2023/10/25 12:52:12;;;;;;;17.70;9.23;;;;;;;21.38;51.49;99579.73;1748579;81;21359;-81
2023/10/25 12:55:18;;;;;;;15.20;8.68;;;;;;;21.10;52.31;99568.31;1760538;81;21857;-81
2023/10/25 12:58:23;;;;;;;14.55;8.15;;;;;;;20.73;53.42;99566.26;1739878;81;21299;-81
2023/10/25 13:01:29;;;;;;;18.45;9.30;;;;;;;20.73;53.41;99557.09;1753267;81;21861;-80
2023/10/25 13:04:35;;;;;;;20.72;9.58;;;;;;;20.61;53.89;99555.30;1741456;82;21327;-80
2023/10/25 13:07:43;;;;;;;13.95;7.78;;;;;;;20.29;54.74;99555.16;1740927;81;21751;-79
2023/10/25 13:10:48;;;;;;;12.13;6.90;;;;;;;20.42;54.64;99556.72;1740872;81;21310;-81
2023/10/25 13:13:53;;;;;;;19.00;8.55;;;;;;;20.51;54.39;99551.00;1741274;82;21311;-81
2023/10/25 13:16:58;;;;;;;13.20;8.33;;;;;;;20.43;54.63;99546.73;1757125;81;21311;-80
2023/10/25 13:20:07;;;;;;;20.97;9.53;;;;;;;20.55;54.36;99546.60;1763770;81;21339;-80
2023/10/25 13:23:13;;;;;;;23.92;11.75;;;;;;;20.54;54.46;99532.98;1765494;81;21276;-80
2023/10/25 13:26:19;;;;;;;23.85;13.20;;;;;;;20.61;54.22;99505.30;1765722;81;21300;-80
2023/10/25 13:29:24;;;;;;;32.90;17.65;;;;;;;20.30;54.92;99499.07;1765478;81;21319;-80
2023/10/25 13:32:30;;;;;;;40.90;20.27;;;;;;;20.31;54.75;99485.47;1766536;81;21296;-79
2023/10/25 13:35:37;;;;;;;71.65;30.23;;;;;;;20.31;54.58;99479.91;1765563;81;21701;-80
2023/10/25 13:38:42;;;;;;;80.05;32.95;;;;;;;20.40;53.88;99468.08;1764197;81;21644;-80
2023/10/25 13:41:48;;;;;;;68.95;29.85;;;;;;;20.50;53.05;99463.77;1776698;81;21291;-80
2023/10/25 13:44:54;;;;;;;59.20;27.22;;;;;;;20.63;52.43;99460.02;1768532;81;21296;-79
2023/10/25 13:48:01;;;;;;;45.65;21.37;;;;;;;20.46;52.48;99452.30;1776895;81;21358;-79
2023/10/25 13:51:07;;;;;;;39.35;21.30;;;;;;;21.04;50.93;99442.88;1772753;81;21869;-80
2023/10/25 13:54:12;;;;;;;42.45;21.60;;;;;;;20.73;51.42;99436.22;1772861;81;21363;-80
2023/10/25 13:57:17;;;;;;;38.42;18.17;;;;;;;20.52;51.98;99415.20;1766462;81;21300;-80
2023/10/25 14:00:22;;;;;;;30.35;14.40;;;;;;;20.50;52.27;99418.77;1766393;81;21213;-79
2023/10/25 14:03:28;;;;;;;15.90;8.78;;;;;;;20.91;51.45;99421.92;1766387;80;21262;-79
2023/10/25 14:06:34;;;;;;;15.20;7.90;;;;;;;20.67;51.98;99415.33;1765902;81;21311;-81
2023/10/25 14:09:41;;;;;;;12.88;7.67;;;;;;;20.84;51.61;99411.05;1766398;81;21291;-81
2023/10/25 14:12:47;;;;;;;14.83;9.10;;;;;;;20.87;51.84;99397.98;1730818;83;21312;-81